sensor_id;sensor_type;location;lat;lon;timestamp;pressure;altitude;pressure_sealevel;temperature
19282;BMP180;9774;52.034;5.342;2024-01-07T00:01:33;101566.00;;;8.40
19282;BMP180;9774;52.034;5.342;2024-01-07T00:04:01;101575.00;;;8.30
19282;BMP180;9774;52.034;5.342;2024-01-07T00:06:28;101573.00;;;8.40
19282;BMP180;9774;52.034;5.342;2024-01-07T00:08:55;101582.00;;;8.40
19282;BMP180;9774;52.034;5.342;2024-01-07T00:11:23;101579.00;;;8.30
19282;BMP180;9774;52.034;5.342;2024-01-07T00:13:50;101580.00;;;8.30
19282;BMP180;9774;52.034;5.342;2024-01-07T00:16:17;101587.00;;;8.30
19282;BMP180;9774;52.034;5.342;2024-01-07T00:18:44;101595.00;;;8.30
19282;BMP180;9774;52.034;5.342;2024-01-07T00:21:12;101594.00;;;8.30
19282;BMP180;9774;52.034;5.342;2024-01-07T00:23:39;101601.00;;;8.30
19282;BMP180;9774;52.034;5.342;2024-01-07T00:26:06;101593.00;;;8.20
19282;BMP180;9774;52.034;5.342;2024-01-07T00:28:34;101597.00;;;8.20
19282;BMP180;9774;52.034;5.342;2024-01-07T00:31:02;101598.00;;;8.20
19282;BMP180;9774;52.034;5.342;2024-01-07T00:33:31;101599.00;;;8.20
19282;BMP180;9774;52.034;5.342;2024-01-07T00:35:58;101600.00;;;8.20
19282;BMP180;9774;52.034;5.342;2024-01-07T00:38:26;101605.00;;;8.20
19282;BMP180;9774;52.034;5.342;2024-01-07T00:40:53;101603.00;;;8.20
19282;BMP180;9774;52.034;5.342;2024-01-07T00:43:20;101608.00;;;8.20
19282;BMP180;9774;52.034;5.342;2024-01-07T00:45:48;101615.00;;;8.20
19282;BMP180;9774;52.034;5.342;2024-01-07T00:48:15;101613.00;;;8.20
19282;BMP180;9774;52.034;5.342;2024-01-07T00:50:42;101616.00;;;8.20
19282;BMP180;9774;52.034;5.342;2024-01-07T00:53:10;101616.00;;;8.20
19282;BMP180;9774;52.034;5.342;2024-01-07T00:55:38;101612.00;;;8.10
19282;BMP180;9774;52.034;5.342;2024-01-07T00:58:05;101617.00;;;8.10
19282;BMP180;9774;52.034;5.342;2024-01-07T01:00:32;101617.00;;;8.10
19282;BMP180;9774;52.034;5.342;2024-01-07T01:02:59;101622.00;;;8.10
19282;BMP180;9774;52.034;5.342;2024-01-07T01:05:26;101622.00;;;8.10
19282;BMP180;9774;52.034;5.342;2024-01-07T01:07:53;101625.00;;;8.00
19282;BMP180;9774;52.034;5.342;2024-01-07T01:10:21;101625.00;;;8.00
19282;BMP180;9774;52.034;5.342;2024-01-07T01:12:49;101628.00;;;8.00
19282;BMP180;9774;52.034;5.342;2024-01-07T01:15:19;101629.00;;;8.00
19282;BMP180;9774;52.034;5.342;2024-01-07T01:17:46;101632.00;;;8.00
19282;BMP180;9774;52.034;5.342;2024-01-07T01:20:14;101628.00;;;8.00
19282;BMP180;9774;52.034;5.342;2024-01-07T01:22:41;101634.00;;;8.00
19282;BMP180;9774;52.034;5.342;2024-01-07T01:25:08;101638.00;;;8.00
19282;BMP180;9774;52.034;5.342;2024-01-07T01:27:36;101638.00;;;8.00
19282;BMP180;9774;52.034;5.342;2024-01-07T01:30:07;101631.00;;;8.00
19282;BMP180;9774;52.034;5.342;2024-01-07T01:32:34;101638.00;;;8.00
19282;BMP180;9774;52.034;5.342;2024-01-07T01:35:01;101635.00;;;8.00
19282;BMP180;9774;52.034;5.342;2024-01-07T01:37:28;101642.00;;;8.00
19282;BMP180;9774;52.034;5.342;2024-01-07T01:39:58;101647.00;;;8.00
19282;BMP180;9774;52.034;5.342;2024-01-07T01:42:25;101654.00;;;8.00
19282;BMP180;9774;52.034;5.342;2024-01-07T01:44:52;101646.00;;;8.00
19282;BMP180;9774;52.034;5.342;2024-01-07T01:47:24;101659.00;;;8.00
19282;BMP180;9774;52.034;5.342;2024-01-07T01:49:51;101664.00;;;8.00
19282;BMP180;9774;52.034;5.342;2024-01-07T01:52:18;101666.00;;;8.00
19282;BMP180;9774;52.034;5.342;2024-01-07T01:54:46;101661.00;;;8.10
19282;BMP180;9774;52.034;5.342;2024-01-07T01:57:19;101676.00;;;8.00
19282;BMP180;9774;52.034;5.342;2024-01-07T01:59:48;101670.00;;;8.10
19282;BMP180;9774;52.034;5.342;2024-01-07T02:02:16;101683.00;;;8.00
19282;BMP180;9774;52.034;5.342;2024-01-07T02:04:44;101682.00;;;8.00
19282;BMP180;9774;52.034;5.342;2024-01-07T02:07:11;101679.00;;;8.00
19282;BMP180;9774;52.034;5.342;2024-01-07T02:09:39;101684.00;;;8.00
19282;BMP180;9774;52.034;5.342;2024-01-07T02:12:07;101680.00;;;8.00
19282;BMP180;9774;52.034;5.342;2024-01-07T02:14:38;101683.00;;;8.00
19282;BMP180;9774;52.034;5.342;2024-01-07T02:17:05;101691.00;;;7.90
19282;BMP180;9774;52.034;5.342;2024-01-07T02:19:32;101683.00;;;7.90
19282;BMP180;9774;52.034;5.342;2024-01-07T02:22:01;101690.00;;;7.90
19282;BMP180;9774;52.034;5.342;2024-01-07T02:24:29;101691.00;;;7.90
19282;BMP180;9774;52.034;5.342;2024-01-07T02:26:58;101691.00;;;7.90
19282;BMP180;9774;52.034;5.342;2024-01-07T02:29:27;101691.00;;;7.90
19282;BMP180;9774;52.034;5.342;2024-01-07T02:31:54;101692.00;;;7.90
19282;BMP180;9774;52.034;5.342;2024-01-07T02:34:22;101701.00;;;7.90
19282;BMP180;9774;52.034;5.342;2024-01-07T02:36:49;101700.00;;;7.90
19282;BMP180;9774;52.034;5.342;2024-01-07T02:39:16;101697.00;;;7.80
19282;BMP180;9774;52.034;5.342;2024-01-07T02:41:44;101705.00;;;7.80
19282;BMP180;9774;52.034;5.342;2024-01-07T02:44:11;101703.00;;;7.80
19282;BMP180;9774;52.034;5.342;2024-01-07T02:46:38;101705.00;;;7.80
19282;BMP180;9774;52.034;5.342;2024-01-07T02:49:05;101705.00;;;7.80
19282;BMP180;9774;52.034;5.342;2024-01-07T02:51:33;101704.00;;;7.80
19282;BMP180;9774;52.034;5.342;2024-01-07T02:54:00;101704.00;;;7.80
19282;BMP180;9774;52.034;5.342;2024-01-07T02:56:26;101705.00;;;7.80
19282;BMP180;9774;52.034;5.342;2024-01-07T02:58:55;101713.00;;;7.80
19282;BMP180;9774;52.034;5.342;2024-01-07T03:01:22;101712.00;;;7.80
19282;BMP180;9774;52.034;5.342;2024-01-07T03:03:50;101715.00;;;7.80
19282;BMP180;9774;52.034;5.342;2024-01-07T03:06:17;101709.00;;;7.80
19282;BMP180;9774;52.034;5.342;2024-01-07T03:08:44;101719.00;;;7.80
19282;BMP180;9774;52.034;5.342;2024-01-07T03:11:11;101721.00;;;7.80
19282;BMP180;9774;52.034;5.342;2024-01-07T03:13:39;101717.00;;;7.80
19282;BMP180;9774;52.034;5.342;2024-01-07T03:16:08;101726.00;;;7.70
19282;BMP180;9774;52.034;5.342;2024-01-07T03:18:35;101729.00;;;7.70
19282;BMP180;9774;52.034;5.342;2024-01-07T03:21:02;101733.00;;;7.80
19282;BMP180;9774;52.034;5.342;2024-01-07T03:23:29;101736.00;;;7.80
19282;BMP180;9774;52.034;5.342;2024-01-07T03:25:58;101742.00;;;7.70
19282;BMP180;9774;52.034;5.342;2024-01-07T03:28:25;101743.00;;;7.80
19282;BMP180;9774;52.034;5.342;2024-01-07T03:30:52;101741.00;;;7.80
19282;BMP180;9774;52.034;5.342;2024-01-07T03:33:20;101738.00;;;7.70
19282;BMP180;9774;52.034;5.342;2024-01-07T03:35:47;101740.00;;;7.80
19282;BMP180;9774;52.034;5.342;2024-01-07T03:38:14;101749.00;;;7.80
19282;BMP180;9774;52.034;5.342;2024-01-07T03:40:42;101744.00;;;7.80
19282;BMP180;9774;52.034;5.342;2024-01-07T03:43:09;101746.00;;;7.80
19282;BMP180;9774;52.034;5.342;2024-01-07T03:45:36;101737.00;;;7.80
19282;BMP180;9774;52.034;5.342;2024-01-07T03:48:03;101744.00;;;7.80
19282;BMP180;9774;52.034;5.342;2024-01-07T03:50:32;101743.00;;;7.70
19282;BMP180;9774;52.034;5.342;2024-01-07T03:52:59;101744.00;;;7.80
19282;BMP180;9774;52.034;5.342;2024-01-07T03:55:26;101754.00;;;7.80
19282;BMP180;9774;52.034;5.342;2024-01-07T03:57:53;101761.00;;;7.80
19282;BMP180;9774;52.034;5.342;2024-01-07T04:00:20;101766.00;;;7.80
19282;BMP180;9774;52.034;5.342;2024-01-07T04:02:47;101763.00;;;7.80
19282;BMP180;9774;52.034;5.342;2024-01-07T04:05:14;101762.00;;;7.80
19282;BMP180;9774;52.034;5.342;2024-01-07T04:07:42;101773.00;;;7.80
19282;BMP180;9774;52.034;5.342;2024-01-07T04:10:09;101772.00;;;7.80
19282;BMP180;9774;52.034;5.342;2024-01-07T04:12:37;101777.00;;;7.80
19282;BMP180;9774;52.034;5.342;2024-01-07T04:15:05;101779.00;;;7.80
19282;BMP180;9774;52.034;5.342;2024-01-07T04:17:32;101783.00;;;7.80
19282;BMP180;9774;52.034;5.342;2024-01-07T04:19:59;101789.00;;;7.70
19282;BMP180;9774;52.034;5.342;2024-01-07T04:22:26;101787.00;;;7.70
19282;BMP180;9774;52.034;5.342;2024-01-07T04:24:55;101785.00;;;7.70
19282;BMP180;9774;52.034;5.342;2024-01-07T04:27:22;101793.00;;;7.70
19282;BMP180;9774;52.034;5.342;2024-01-07T04:29:50;101796.00;;;7.70
19282;BMP180;9774;52.034;5.342;2024-01-07T04:32:17;101794.00;;;7.70
19282;BMP180;9774;52.034;5.342;2024-01-07T04:34:45;101794.00;;;7.70
19282;BMP180;9774;52.034;5.342;2024-01-07T04:37:12;101807.00;;;7.70
19282;BMP180;9774;52.034;5.342;2024-01-07T04:39:39;101796.00;;;7.70
19282;BMP180;9774;52.034;5.342;2024-01-07T04:42:08;101808.00;;;7.60
19282;BMP180;9774;52.034;5.342;2024-01-07T04:44:35;101806.00;;;7.60
19282;BMP180;9774;52.034;5.342;2024-01-07T04:47:02;101812.00;;;7.60
19282;BMP180;9774;52.034;5.342;2024-01-07T04:49:29;101820.00;;;7.60
19282;BMP180;9774;52.034;5.342;2024-01-07T04:51:56;101821.00;;;7.60
19282;BMP180;9774;52.034;5.342;2024-01-07T04:54:23;101823.00;;;7.60
19282;BMP180;9774;52.034;5.342;2024-01-07T04:56:50;101822.00;;;7.60
19282;BMP180;9774;52.034;5.342;2024-01-07T04:59:18;101830.00;;;7.60
19282;BMP180;9774;52.034;5.342;2024-01-07T05:01:45;101838.00;;;7.70
19282;BMP180;9774;52.034;5.342;2024-01-07T05:04:12;101838.00;;;7.70
19282;BMP180;9774;52.034;5.342;2024-01-07T05:06:39;101838.00;;;7.70
19282;BMP180;9774;52.034;5.342;2024-01-07T05:09:07;101844.00;;;7.70
19282;BMP180;9774;52.034;5.342;2024-01-07T05:11:39;101851.00;;;7.60
19282;BMP180;9774;52.034;5.342;2024-01-07T05:14:06;101855.00;;;7.60
19282;BMP180;9774;52.034;5.342;2024-01-07T05:16:35;101851.00;;;7.60
19282;BMP180;9774;52.034;5.342;2024-01-07T05:19:02;101855.00;;;7.60
19282;BMP180;9774;52.034;5.342;2024-01-07T05:21:29;101853.00;;;7.60
19282;BMP180;9774;52.034;5.342;2024-01-07T05:23:56;101860.00;;;7.60
19282;BMP180;9774;52.034;5.342;2024-01-07T05:26:23;101855.00;;;7.60
19282;BMP180;9774;52.034;5.342;2024-01-07T05:28:51;101865.00;;;7.60
19282;BMP180;9774;52.034;5.342;2024-01-07T05:31:18;101869.00;;;7.60
19282;BMP180;9774;52.034;5.342;2024-01-07T05:33:47;101864.00;;;7.60
19282;BMP180;9774;52.034;5.342;2024-01-07T05:36:14;101863.00;;;7.60
19282;BMP180;9774;52.034;5.342;2024-01-07T05:38:42;101870.00;;;7.60
19282;BMP180;9774;52.034;5.342;2024-01-07T05:41:09;101877.00;;;7.60
19282;BMP180;9774;52.034;5.342;2024-01-07T05:43:36;101876.00;;;7.50
19282;BMP180;9774;52.034;5.342;2024-01-07T05:46:03;101888.00;;;7.60
19282;BMP180;9774;52.034;5.342;2024-01-07T05:48:41;101887.00;;;7.50
19282;BMP180;9774;52.034;5.342;2024-01-07T05:51:11;101892.00;;;7.50
19282;BMP180;9774;52.034;5.342;2024-01-07T05:53:39;101900.00;;;7.50
19282;BMP180;9774;52.034;5.342;2024-01-07T05:56:07;101904.00;;;7.50
19282;BMP180;9774;52.034;5.342;2024-01-07T05:58:34;101893.00;;;7.50
19282;BMP180;9774;52.034;5.342;2024-01-07T06:01:01;101895.00;;;7.50
19282;BMP180;9774;52.034;5.342;2024-01-07T06:03:29;101911.00;;;7.50
19282;BMP180;9774;52.034;5.342;2024-01-07T06:05:57;101913.00;;;7.50
19282;BMP180;9774;52.034;5.342;2024-01-07T06:08:26;101912.00;;;7.50
19282;BMP180;9774;52.034;5.342;2024-01-07T06:10:53;101919.00;;;7.60
19282;BMP180;9774;52.034;5.342;2024-01-07T06:13:20;101916.00;;;7.60
19282;BMP180;9774;52.034;5.342;2024-01-07T06:15:47;101919.00;;;7.60
19282;BMP180;9774;52.034;5.342;2024-01-07T06:18:14;101925.00;;;7.60
19282;BMP180;9774;52.034;5.342;2024-01-07T06:20:41;101925.00;;;7.60
19282;BMP180;9774;52.034;5.342;2024-01-07T06:23:08;101930.00;;;7.60
19282;BMP180;9774;52.034;5.342;2024-01-07T06:25:36;101937.00;;;7.60
19282;BMP180;9774;52.034;5.342;2024-01-07T06:28:05;101942.00;;;7.60
19282;BMP180;9774;52.034;5.342;2024-01-07T06:30:32;101946.00;;;7.60
19282;BMP180;9774;52.034;5.342;2024-01-07T06:32:59;101964.00;;;7.60
19282;BMP180;9774;52.034;5.342;2024-01-07T06:35:26;101953.00;;;7.60
19282;BMP180;9774;52.034;5.342;2024-01-07T06:37:53;101955.00;;;7.60
19282;BMP180;9774;52.034;5.342;2024-01-07T06:40:20;101956.00;;;7.60
19282;BMP180;9774;52.034;5.342;2024-01-07T06:42:50;101960.00;;;7.60
19282;BMP180;9774;52.034;5.342;2024-01-07T06:45:17;101967.00;;;7.60
19282;BMP180;9774;52.034;5.342;2024-01-07T06:47:44;101955.00;;;7.60
19282;BMP180;9774;52.034;5.342;2024-01-07T06:50:12;101973.00;;;7.60
19282;BMP180;9774;52.034;5.342;2024-01-07T06:52:39;101975.00;;;7.60
19282;BMP180;9774;52.034;5.342;2024-01-07T06:55:07;101974.00;;;7.60
19282;BMP180;9774;52.034;5.342;2024-01-07T06:57:34;101985.00;;;7.60
19282;BMP180;9774;52.034;5.342;2024-01-07T07:00:04;101980.00;;;7.60
19282;BMP180;9774;52.034;5.342;2024-01-07T07:02:31;101992.00;;;7.60
19282;BMP180;9774;52.034;5.342;2024-01-07T07:04:58;101989.00;;;7.60
19282;BMP180;9774;52.034;5.342;2024-01-07T07:07:25;101992.00;;;7.60
19282;BMP180;9774;52.034;5.342;2024-01-07T07:09:52;102006.00;;;7.60
19282;BMP180;9774;52.034;5.342;2024-01-07T07:12:19;102005.00;;;7.60
19282;BMP180;9774;52.034;5.342;2024-01-07T07:14:46;102007.00;;;7.60
19282;BMP180;9774;52.034;5.342;2024-01-07T07:17:15;102011.00;;;7.60
19282;BMP180;9774;52.034;5.342;2024-01-07T07:19:42;102017.00;;;7.60
19282;BMP180;9774;52.034;5.342;2024-01-07T07:22:09;102015.00;;;7.60
19282;BMP180;9774;52.034;5.342;2024-01-07T07:24:40;102020.00;;;7.50
19282;BMP180;9774;52.034;5.342;2024-01-07T07:27:08;102030.00;;;7.60
19282;BMP180;9774;52.034;5.342;2024-01-07T07:29:35;102031.00;;;7.60
19282;BMP180;9774;52.034;5.342;2024-01-07T07:32:03;102027.00;;;7.60
19282;BMP180;9774;52.034;5.342;2024-01-07T07:34:31;102030.00;;;7.50
19282;BMP180;9774;52.034;5.342;2024-01-07T07:37:00;102033.00;;;7.50
19282;BMP180;9774;52.034;5.342;2024-01-07T07:39:27;102030.00;;;7.50
19282;BMP180;9774;52.034;5.342;2024-01-07T07:41:54;102036.00;;;7.50
19282;BMP180;9774;52.034;5.342;2024-01-07T07:44:21;102042.00;;;7.60
19282;BMP180;9774;52.034;5.342;2024-01-07T07:46:48;102052.00;;;7.60
19282;BMP180;9774;52.034;5.342;2024-01-07T07:49:16;102052.00;;;7.60
19282;BMP180;9774;52.034;5.342;2024-01-07T07:51:44;102066.00;;;7.60
19282;BMP180;9774;52.034;5.342;2024-01-07T07:54:12;102072.00;;;7.50
19282;BMP180;9774;52.034;5.342;2024-01-07T07:56:39;102076.00;;;7.50
19282;BMP180;9774;52.034;5.342;2024-01-07T07:59:05;102079.00;;;7.50
19282;BMP180;9774;52.034;5.342;2024-01-07T08:01:32;102079.00;;;7.50
19282;BMP180;9774;52.034;5.342;2024-01-07T08:03:59;102079.00;;;7.50
19282;BMP180;9774;52.034;5.342;2024-01-07T08:06:27;102087.00;;;7.50
19282;BMP180;9774;52.034;5.342;2024-01-07T08:08:56;102089.00;;;7.40
19282;BMP180;9774;52.034;5.342;2024-01-07T08:11:23;102100.00;;;7.40
19282;BMP180;9774;52.034;5.342;2024-01-07T08:13:50;102095.00;;;7.40
19282;BMP180;9774;52.034;5.342;2024-01-07T08:16:17;102109.00;;;7.40
19282;BMP180;9774;52.034;5.342;2024-01-07T08:18:44;102107.00;;;7.30
19282;BMP180;9774;52.034;5.342;2024-01-07T08:21:11;102112.00;;;7.30
19282;BMP180;9774;52.034;5.342;2024-01-07T08:23:38;102100.00;;;7.30
19282;BMP180;9774;52.034;5.342;2024-01-07T08:26:07;102113.00;;;7.30
19282;BMP180;9774;52.034;5.342;2024-01-07T08:28:34;102108.00;;;7.30
19282;BMP180;9774;52.034;5.342;2024-01-07T08:31:01;102114.00;;;7.30
19282;BMP180;9774;52.034;5.342;2024-01-07T08:33:28;102118.00;;;7.30
19282;BMP180;9774;52.034;5.342;2024-01-07T08:35:58;102117.00;;;7.30
19282;BMP180;9774;52.034;5.342;2024-01-07T08:38:25;102114.00;;;7.30
19282;BMP180;9774;52.034;5.342;2024-01-07T08:40:52;102117.00;;;7.30
19282;BMP180;9774;52.034;5.342;2024-01-07T08:43:21;102125.00;;;7.30
19282;BMP180;9774;52.034;5.342;2024-01-07T08:45:48;102131.00;;;7.30
19282;BMP180;9774;52.034;5.342;2024-01-07T08:48:15;102138.00;;;7.30
19282;BMP180;9774;52.034;5.342;2024-01-07T08:50:42;102148.00;;;7.30
19282;BMP180;9774;52.034;5.342;2024-01-07T08:53:09;102153.00;;;7.20
19282;BMP180;9774;52.034;5.342;2024-01-07T08:55:36;102151.00;;;7.20
19282;BMP180;9774;52.034;5.342;2024-01-07T08:58:04;102158.00;;;7.20
19282;BMP180;9774;52.034;5.342;2024-01-07T09:00:33;102161.00;;;7.20
19282;BMP180;9774;52.034;5.342;2024-01-07T09:03:00;102167.00;;;7.20
19282;BMP180;9774;52.034;5.342;2024-01-07T09:05:27;102172.00;;;7.20
19282;BMP180;9774;52.034;5.342;2024-01-07T09:07:54;102172.00;;;7.20
19282;BMP180;9774;52.034;5.342;2024-01-07T09:10:22;102177.00;;;7.20
19282;BMP180;9774;52.034;5.342;2024-01-07T09:12:50;102174.00;;;7.20
19282;BMP180;9774;52.034;5.342;2024-01-07T09:15:19;102177.00;;;7.20
19282;BMP180;9774;52.034;5.342;2024-01-07T09:17:48;102178.00;;;7.20
19282;BMP180;9774;52.034;5.342;2024-01-07T09:20:15;102182.00;;;7.20
19282;BMP180;9774;52.034;5.342;2024-01-07T09:22:42;102197.00;;;7.30
19282;BMP180;9774;52.034;5.342;2024-01-07T09:25:10;102191.00;;;7.20
19282;BMP180;9774;52.034;5.342;2024-01-07T09:27:38;102210.00;;;7.30
19282;BMP180;9774;52.034;5.342;2024-01-07T09:30:07;102215.00;;;7.30
19282;BMP180;9774;52.034;5.342;2024-01-07T09:32:36;102212.00;;;7.30
19282;BMP180;9774;52.034;5.342;2024-01-07T09:35:05;102211.00;;;7.20
19282;BMP180;9774;52.034;5.342;2024-01-07T09:37:32;102215.00;;;7.30
19282;BMP180;9774;52.034;5.342;2024-01-07T09:40:01;102227.00;;;7.30
19282;BMP180;9774;52.034;5.342;2024-01-07T09:42:30;102223.00;;;7.30
19282;BMP180;9774;52.034;5.342;2024-01-07T09:45:01;102225.00;;;7.30
19282;BMP180;9774;52.034;5.342;2024-01-07T09:47:29;102227.00;;;7.30
19282;BMP180;9774;52.034;5.342;2024-01-07T09:49:57;102227.00;;;7.40
19282;BMP180;9774;52.034;5.342;2024-01-07T09:52:25;102240.00;;;7.40
19282;BMP180;9774;52.034;5.342;2024-01-07T09:55:00;102246.00;;;7.30
19282;BMP180;9774;52.034;5.342;2024-01-07T09:57:30;102238.00;;;7.40
19282;BMP180;9774;52.034;5.342;2024-01-07T09:59:57;102237.00;;;7.40
19282;BMP180;9774;52.034;5.342;2024-01-07T10:02:24;102246.00;;;7.30
19282;BMP180;9774;52.034;5.342;2024-01-07T10:04:51;102246.00;;;7.30
19282;BMP180;9774;52.034;5.342;2024-01-07T10:07:18;102239.00;;;7.30
19282;BMP180;9774;52.034;5.342;2024-01-07T10:09:46;102245.00;;;7.30
19282;BMP180;9774;52.034;5.342;2024-01-07T10:12:13;102249.00;;;7.30
19282;BMP180;9774;52.034;5.342;2024-01-07T10:14:41;102253.00;;;7.40
19282;BMP180;9774;52.034;5.342;2024-01-07T10:17:15;102255.00;;;7.30
19282;BMP180;9774;52.034;5.342;2024-01-07T10:19:44;102254.00;;;7.40
19282;BMP180;9774;52.034;5.342;2024-01-07T10:22:14;102259.00;;;7.40
19282;BMP180;9774;52.034;5.342;2024-01-07T10:24:42;102264.00;;;7.40
19282;BMP180;9774;52.034;5.342;2024-01-07T10:27:11;102255.00;;;7.40
19282;BMP180;9774;52.034;5.342;2024-01-07T10:29:38;102268.00;;;7.40
19282;BMP180;9774;52.034;5.342;2024-01-07T10:32:06;102273.00;;;7.40
19282;BMP180;9774;52.034;5.342;2024-01-07T10:34:37;102275.00;;;7.40
19282;BMP180;9774;52.034;5.342;2024-01-07T10:37:05;102281.00;;;7.50
19282;BMP180;9774;52.034;5.342;2024-01-07T10:39:32;102283.00;;;7.50
19282;BMP180;9774;52.034;5.342;2024-01-07T10:42:00;102291.00;;;7.60
19282;BMP180;9774;52.034;5.342;2024-01-07T10:44:31;102295.00;;;7.60
19282;BMP180;9774;52.034;5.342;2024-01-07T10:46:59;102295.00;;;7.50
19282;BMP180;9774;52.034;5.342;2024-01-07T10:49:28;102298.00;;;7.50
19282;BMP180;9774;52.034;5.342;2024-01-07T10:52:03;102295.00;;;7.40
19282;BMP180;9774;52.034;5.342;2024-01-07T10:54:32;102302.00;;;7.40
19282;BMP180;9774;52.034;5.342;2024-01-07T10:57:09;102302.00;;;7.40
19282;BMP180;9774;52.034;5.342;2024-01-07T10:59:41;102300.00;;;7.30
19282;BMP180;9774;52.034;5.342;2024-01-07T11:02:11;102304.00;;;7.30
19282;BMP180;9774;52.034;5.342;2024-01-07T11:04:49;102292.00;;;7.30
19282;BMP180;9774;52.034;5.342;2024-01-07T11:07:28;102294.00;;;7.30
19282;BMP180;9774;52.034;5.342;2024-01-07T11:10:08;102300.00;;;7.30
19282;BMP180;9774;52.034;5.342;2024-01-07T11:12:37;102290.00;;;7.40
19282;BMP180;9774;52.034;5.342;2024-01-07T11:15:06;102302.00;;;7.40
19282;BMP180;9774;52.034;5.342;2024-01-07T11:17:43;102301.00;;;7.40
19282;BMP180;9774;52.034;5.342;2024-01-07T11:20:19;102300.00;;;7.40
19282;BMP180;9774;52.034;5.342;2024-01-07T11:22:47;102314.00;;;7.50
19282;BMP180;9774;52.034;5.342;2024-01-07T11:25:31;102305.00;;;7.40
19282;BMP180;9774;52.034;5.342;2024-01-07T11:28:01;102308.00;;;7.50
19282;BMP180;9774;52.034;5.342;2024-01-07T11:30:29;102305.00;;;7.50
19282;BMP180;9774;52.034;5.342;2024-01-07T11:32:57;102313.00;;;7.50
19282;BMP180;9774;52.034;5.342;2024-01-07T11:35:54;102304.00;;;7.30
19282;BMP180;9774;52.034;5.342;2024-01-07T11:38:22;102295.00;;;7.40
19282;BMP180;9774;52.034;5.342;2024-01-07T11:40:50;102311.00;;;7.40
19282;BMP180;9774;52.034;5.342;2024-01-07T11:43:18;102312.00;;;7.40
19282;BMP180;9774;52.034;5.342;2024-01-07T11:45:49;102299.00;;;7.40
19282;BMP180;9774;52.034;5.342;2024-01-07T11:48:16;102308.00;;;7.40
19282;BMP180;9774;52.034;5.342;2024-01-07T11:50:43;102305.00;;;7.40
19282;BMP180;9774;52.034;5.342;2024-01-07T11:53:12;102300.00;;;7.40
19282;BMP180;9774;52.034;5.342;2024-01-07T11:55:39;102297.00;;;7.50
19282;BMP180;9774;52.034;5.342;2024-01-07T11:58:06;102300.00;;;7.60
19282;BMP180;9774;52.034;5.342;2024-01-07T12:00:33;102315.00;;;7.70
19282;BMP180;9774;52.034;5.342;2024-01-07T12:03:03;102301.00;;;7.70
19282;BMP180;9774;52.034;5.342;2024-01-07T12:05:31;102305.00;;;7.80
19282;BMP180;9774;52.034;5.342;2024-01-07T12:08:00;102308.00;;;7.80
19282;BMP180;9774;52.034;5.342;2024-01-07T12:10:29;102306.00;;;7.90
19282;BMP180;9774;52.034;5.342;2024-01-07T12:12:57;102309.00;;;8.00
19282;BMP180;9774;52.034;5.342;2024-01-07T12:15:25;102309.00;;;8.00
19282;BMP180;9774;52.034;5.342;2024-01-07T12:17:56;102304.00;;;8.00
19282;BMP180;9774;52.034;5.342;2024-01-07T12:20:26;102304.00;;;8.00
19282;BMP180;9774;52.034;5.342;2024-01-07T12:22:56;102304.00;;;8.10
19282;BMP180;9774;52.034;5.342;2024-01-07T12:25:25;102312.00;;;8.10
19282;BMP180;9774;52.034;5.342;2024-01-07T12:27:52;102326.00;;;8.20
19282;BMP180;9774;52.034;5.342;2024-01-07T12:30:20;102315.00;;;8.10
19282;BMP180;9774;52.034;5.342;2024-01-07T12:32:47;102323.00;;;8.10
19282;BMP180;9774;52.034;5.342;2024-01-07T12:35:14;102324.00;;;8.10
19282;BMP180;9774;52.034;5.342;2024-01-07T12:37:42;102328.00;;;8.00
19282;BMP180;9774;52.034;5.342;2024-01-07T12:40:11;102318.00;;;8.00
19282;BMP180;9774;52.034;5.342;2024-01-07T12:42:39;102320.00;;;7.90
19282;BMP180;9774;52.034;5.342;2024-01-07T12:45:12;102331.00;;;7.90
19282;BMP180;9774;52.034;5.342;2024-01-07T12:47:40;102330.00;;;7.90
19282;BMP180;9774;52.034;5.342;2024-01-07T12:50:09;102339.00;;;7.90
19282;BMP180;9774;52.034;5.342;2024-01-07T12:52:37;102346.00;;;8.00
19282;BMP180;9774;52.034;5.342;2024-01-07T12:55:07;102345.00;;;8.00
19282;BMP180;9774;52.034;5.342;2024-01-07T12:57:35;102341.00;;;8.00
19282;BMP180;9774;52.034;5.342;2024-01-07T13:00:03;102351.00;;;8.00
19282;BMP180;9774;52.034;5.342;2024-01-07T13:02:32;102345.00;;;8.10
19282;BMP180;9774;52.034;5.342;2024-01-07T13:05:00;102348.00;;;8.20
19282;BMP180;9774;52.034;5.342;2024-01-07T13:07:28;102347.00;;;8.40
19282;BMP180;9774;52.034;5.342;2024-01-07T13:09:55;102358.00;;;8.60
19282;BMP180;9774;52.034;5.342;2024-01-07T13:12:24;102349.00;;;8.80
19282;BMP180;9774;52.034;5.342;2024-01-07T13:14:50;102359.00;;;9.10
19282;BMP180;9774;52.034;5.342;2024-01-07T13:17:19;102350.00;;;9.40
19282;BMP180;9774;52.034;5.342;2024-01-07T13:19:46;102358.00;;;9.70
19282;BMP180;9774;52.034;5.342;2024-01-07T13:22:13;102360.00;;;9.90
19282;BMP180;9774;52.034;5.342;2024-01-07T13:24:40;102362.00;;;10.10
19282;BMP180;9774;52.034;5.342;2024-01-07T13:27:07;102381.00;;;10.40
19282;BMP180;9774;52.034;5.342;2024-01-07T13:29:36;102385.00;;;10.40
19282;BMP180;9774;52.034;5.342;2024-01-07T13:32:03;102376.00;;;10.40
19282;BMP180;9774;52.034;5.342;2024-01-07T13:34:30;102381.00;;;10.30
19282;BMP180;9774;52.034;5.342;2024-01-07T13:36:58;102382.00;;;10.20
19282;BMP180;9774;52.034;5.342;2024-01-07T13:39:26;102381.00;;;10.10
19282;BMP180;9774;52.034;5.342;2024-01-07T13:41:53;102383.00;;;10.00
19282;BMP180;9774;52.034;5.342;2024-01-07T13:44:20;102381.00;;;10.00
19282;BMP180;9774;52.034;5.342;2024-01-07T13:46:49;102389.00;;;10.00
19282;BMP180;9774;52.034;5.342;2024-01-07T13:49:17;102391.00;;;10.10
19282;BMP180;9774;52.034;5.342;2024-01-07T13:51:45;102386.00;;;10.20
19282;BMP180;9774;52.034;5.342;2024-01-07T13:54:12;102400.00;;;10.40
19282;BMP180;9774;52.034;5.342;2024-01-07T13:56:40;102402.00;;;10.70
19282;BMP180;9774;52.034;5.342;2024-01-07T13:59:08;102399.00;;;10.80
19282;BMP180;9774;52.034;5.342;2024-01-07T14:01:36;102406.00;;;10.80
19282;BMP180;9774;52.034;5.342;2024-01-07T14:04:04;102403.00;;;10.70
19282;BMP180;9774;52.034;5.342;2024-01-07T14:06:31;102415.00;;;10.70
19282;BMP180;9774;52.034;5.342;2024-01-07T14:08:59;102416.00;;;10.50
19282;BMP180;9774;52.034;5.342;2024-01-07T14:11:26;102410.00;;;10.30
19282;BMP180;9774;52.034;5.342;2024-01-07T14:13:54;102416.00;;;10.20
19282;BMP180;9774;52.034;5.342;2024-01-07T14:16:21;102417.00;;;10.00
19282;BMP180;9774;52.034;5.342;2024-01-07T14:18:48;102420.00;;;9.80
19282;BMP180;9774;52.034;5.342;2024-01-07T14:21:16;102438.00;;;9.60
19282;BMP180;9774;52.034;5.342;2024-01-07T14:23:44;102424.00;;;9.40
19282;BMP180;9774;52.034;5.342;2024-01-07T14:26:11;102442.00;;;9.20